Time;durP1;ratioP1;P1;durP2;ratioP2;P2;SDS_P1;SDS_P2;PMS_P1;PMS_P2;Temp;Humidity;BMP_temperature;BMP_pressure;BME280_temperature;BME280_humidity;BME280_pressure;Samples;Min_cycle;Max_cycle;Signal;HPM_P1;HPM_P2
2021/12/05 00:19:53;;;;;;;0.70;0.70;;;;;;;;;;5021453;28;20045;-72
2021/12/05 00:22:31;;;;;;;0.60;0.60;;;;;;;;;;5016976;28;20045;-72
2021/12/05 00:24:39;;;;;;;0.75;0.70;;;;;;;;;;5020540;28;20057;-72
2021/12/05 00:27:14;;;;;;;0.60;0.60;;;;;;;;;;5019948;28;20105;-72
2021/12/05 00:29:50;;;;;;;0.80;0.80;;;;;;;;;;5021573;28;20045;-72
2021/12/05 00:32:32;;;;;;;0.60;0.60;;;;;;;;;;5021316;28;20032;-72
2021/12/05 00:46:05;;;;;;;1.95;0.85;;;;;;;;;;5052745;28;20053;-71
2021/12/05 00:56:27;;;;;;;4.40;0.90;;;;;;;;;;5052922;28;20032;-72
2021/12/05 01:04:57;;;;;;;2.60;1.27;;;;;;;;;;5052562;28;20036;-71
2021/12/05 01:07:39;;;;;;;2.45;0.90;;;;;;;;;;5053243;28;20040;-72
2021/12/05 01:15:36;;;;;;;1.48;0.77;;;;;;;;;;5020796;28;20037;-72
2021/12/05 01:18:05;;;;;;;0.68;0.68;;;;;;;;;;5020486;28;20272;-73
2021/12/05 01:20:42;;;;;;;4.63;0.70;;;;;;;;;;5052425;28;20030;-71
2021/12/05 01:23:29;;;;;;;0.85;0.70;;;;;;;;;;5019761;28;20033;-72
2021/12/05 01:30:58;;;;;;;0.65;0.60;;;;;;;;;;5020064;28;20124;-72
2021/12/05 01:33:44;;;;;;;0.75;0.75;;;;;;;;;;5019634;28;20056;-72
2021/12/05 01:49:55;;;;;;;1.27;1.17;;;;;;;;;;5056486;28;20402;-72
2021/12/05 01:52:50;;;;;;;0.95;0.80;;;;;;;;;;5039126;28;20033;-72
2021/12/05 01:55:44;;;;;;;1.13;0.70;;;;;;;;;;5026746;28;20037;-72
2021/12/05 02:09:35;;;;;;;2.50;0.80;;;;;;;;;;5055727;28;20119;-72
2021/12/05 02:41:50;;;;;;;1.85;0.70;;;;;;;;;;5054939;28;20049;-72
2021/12/05 02:44:22;;;;;;;2.50;1.40;;;;;;;;;;5054961;28;20021;-72
2021/12/05 02:46:59;;;;;;;2.03;1.20;;;;;;;;;;5055266;28;20041;-72
2021/12/05 02:49:26;;;;;;;1.15;0.85;;;;;;;;;;5053999;28;20025;-72
2021/12/05 02:51:59;;;;;;;1.17;0.80;;;;;;;;;;5023058;28;20040;-74
2021/12/05 02:54:27;;;;;;;0.68;0.68;;;;;;;;;;5054951;28;20060;-71
2021/12/05 02:56:55;;;;;;;1.00;0.77;;;;;;;;;;5054787;28;20064;-71
2021/12/05 02:59:41;;;;;;;0.98;0.52;;;;;;;;;;5050987;28;20036;-74
2021/12/05 03:02:14;;;;;;;2.03;1.10;;;;;;;;;;5022206;28;20120;-73
2021/12/05 03:04:47;;;;;;;2.25;0.90;;;;;;;;;;5054692;28;20108;-73
2021/12/05 03:07:18;;;;;;;1.35;0.73;;;;;;;;;;5054681;28;20041;-74
2021/12/05 03:09:44;;;;;;;0.60;0.60;;;;;;;;;;5054840;28;20060;-73
2021/12/05 03:12:16;;;;;;;1.85;0.50;;;;;;;;;;5022456;28;20055;-73
2021/12/05 03:14:44;;;;;;;1.17;0.75;;;;;;;;;;5054156;28;20049;-72
2021/12/05 03:17:11;;;;;;;0.38;0.32;;;;;;;;;;5054475;28;20051;-72
2021/12/05 03:19:36;;;;;;;0.70;0.70;;;;;;;;;;5054684;28;20044;-73
2021/12/05 03:22:02;;;;;;;2.72;0.98;;;;;;;;;;5022431;28;20045;-72
2021/12/05 03:24:30;;;;;;;0.65;0.65;;;;;;;;;;5053859;28;20026;-72
2021/12/05 03:26:57;;;;;;;5.05;0.90;;;;;;;;;;5022521;28;20044;-72
2021/12/05 03:29:23;;;;;;;1.83;0.68;;;;;;;;;;5022515;28;20033;-72
2021/12/05 03:31:50;;;;;;;0.82;0.82;;;;;;;;;;5054076;28;20045;-72
2021/12/05 03:34:20;;;;;;;2.63;1.10;;;;;;;;;;5054085;28;20068;-73
2021/12/05 03:36:50;;;;;;;1.23;0.70;;;;;;;;;;5020906;28;20042;-72
2021/12/05 03:39:18;;;;;;;2.20;1.15;;;;;;;;;;5054354;28;20029;-73
2021/12/05 03:41:45;;;;;;;2.90;1.20;;;;;;;;;;5053681;28;20093;-72
2021/12/05 03:44:16;;;;;;;0.90;0.90;;;;;;;;;;5053680;28;20617;-72
2021/12/05 03:46:44;;;;;;;;;;;;;;;;;;5054387;28;20037;-72
2021/12/05 03:49:12;;;;;;;5.63;1.20;;;;;;;;;;5054198;28;20000;-72
2021/12/05 03:51:47;;;;;;;2.55;1.20;;;;;;;;;;5053723;28;20119;-72
2021/12/05 03:54:13;;;;;;;1.55;1.30;;;;;;;;;;5053589;28;20116;-73
2021/12/05 03:56:39;;;;;;;2.72;1.00;;;;;;;;;;5053158;28;20531;-73
2021/12/05 03:59:07;;;;;;;2.17;1.20;;;;;;;;;;5021693;28;20040;-73
2021/12/05 04:01:34;;;;;;;1.38;0.70;;;;;;;;;;5052706;28;20155;-73
2021/12/05 04:03:59;;;;;;;0.85;0.70;;;;;;;;;;5020896;28;20063;-73
2021/12/05 04:06:26;;;;;;;1.15;0.80;;;;;;;;;;5021355;28;20046;-73
2021/12/05 04:08:54;;;;;;;1.42;0.98;;;;;;;;;;5053780;28;20037;-73
2021/12/05 04:11:29;;;;;;;7.63;0.90;;;;;;;;;;5053894;28;20068;-73
2021/12/05 04:13:56;;;;;;;0.60;0.60;;;;;;;;;;5020147;28;20152;-74
2021/12/05 04:16:24;;;;;;;0.70;0.70;;;;;;;;;;5053537;28;20096;-73
2021/12/05 04:18:52;;;;;;;1.05;0.95;;;;;;;;;;5019956;28;20110;-72
2021/12/05 04:21:18;;;;;;;1.77;1.30;;;;;;;;;;5053446;28;20036;-73
2021/12/05 04:23:46;;;;;;;1.35;1.10;;;;;;;;;;5053584;28;20033;-73
2021/12/05 04:26:16;;;;;;;1.75;1.27;;;;;;;;;;5053564;28;20867;-72
2021/12/05 04:28:43;;;;;;;5.07;1.20;;;;;;;;;;5052968;28;20033;-72
2021/12/05 04:31:11;;;;;;;2.50;1.38;;;;;;;;;;5052846;28;20067;-72
2021/12/05 04:33:39;;;;;;;1.27;0.93;;;;;;;;;;5020025;28;20038;-73
2021/12/05 04:36:06;;;;;;;9.82;1.30;;;;;;;;;;5053046;28;20128;-72
2021/12/05 04:38:33;;;;;;;1.83;1.17;;;;;;;;;;5036680;28;20040;-72
2021/12/05 04:40:59;;;;;;;3.80;0.80;;;;;;;;;;5052047;28;20082;-73
2021/12/05 04:43:25;;;;;;;2.42;0.95;;;;;;;;;;5053324;28;20025;-72
2021/12/05 04:45:52;;;;;;;1.13;0.85;;;;;;;;;;5053074;28;20156;-73
2021/12/05 04:48:18;;;;;;;2.20;0.70;;;;;;;;;;5053277;28;20033;-72
2021/12/05 04:50:44;;;;;;;3.63;1.08;;;;;;;;;;5052249;28;20091;-72
2021/12/05 04:53:10;;;;;;;2.08;0.80;;;;;;;;;;5052841;28;20087;-73
2021/12/05 04:55:36;;;;;;;1.00;0.65;;;;;;;;;;5053212;28;20045;-73
2021/12/05 04:58:08;;;;;;;5.13;0.82;;;;;;;;;;5052196;28;20044;-72
2021/12/05 05:00:40;;;;;;;1.65;1.13;;;;;;;;;;5051834;28;20048;-73
2021/12/05 05:03:06;;;;;;;4.85;1.10;;;;;;;;;;5020587;28;20038;-73
2021/12/05 05:05:33;;;;;;;4.57;0.85;;;;;;;;;;5021089;28;20040;-73
2021/12/05 05:07:59;;;;;;;1.92;0.82;;;;;;;;;;5018828;28;20312;-73
2021/12/05 05:10:28;;;;;;;1.08;0.70;;;;;;;;;;5020516;28;20048;-73
2021/12/05 05:12:54;;;;;;;4.60;0.85;;;;;;;;;;5019816;28;20376;-73
2021/12/05 05:15:25;;;;;;;0.60;0.50;;;;;;;;;;5021055;28;20052;-72
2021/12/05 05:17:52;;;;;;;2.60;0.93;;;;;;;;;;5020854;28;20044;-73
2021/12/05 05:20:26;;;;;;;2.05;0.80;;;;;;;;;;5021182;28;20510;-73
2021/12/05 05:28:28;;;;;;;4.32;0.93;;;;;;;;;;5020814;28;20045;-72
2021/12/05 05:50:01;;;;;;;2.42;1.00;;;;;;;;;;5020821;28;20496;-73
2021/12/05 05:52:30;;;;;;;2.72;0.82;;;;;;;;;;5019199;28;20052;-72
2021/12/05 05:54:58;;;;;;;1.02;0.90;;;;;;;;;;5020945;28;20045;-71
2021/12/05 05:57:32;;;;;;;0.95;0.80;;;;;;;;;;5020366;28;20040;-73
2021/12/05 06:05:23;;;;;;;3.25;1.05;;;;;;;;;;5021125;28;20033;-73
2021/12/05 06:07:49;;;;;;;3.00;0.90;;;;;;;;;;5019993;28;20052;-72
2021/12/05 06:10:19;;;;;;;2.97;1.10;;;;;;;;;;5018400;28;20047;-73
2021/12/05 06:12:45;;;;;;;2.65;1.08;;;;;;;;;;5019282;28;20049;-73
2021/12/05 06:15:13;;;;;;;7.28;1.20;;;;;;;;;;5018926;28;20037;-73
2021/12/05 06:17:39;;;;;;;1.23;0.95;;;;;;;;;;5019869;28;20045;-73
2021/12/05 06:20:17;;;;;;;3.10;1.25;;;;;;;;;;5018790;28;20033;-73
2021/12/05 06:22:45;;;;;;;5.05;1.80;;;;;;;;;;5018471;28;20116;-73
2021/12/05 06:25:17;;;;;;;6.28;2.47;;;;;;;;;;5022189;28;20099;-72
2021/12/05 06:27:43;;;;;;;2.10;1.35;;;;;;;;;;5022879;28;20042;-73
2021/12/05 06:30:12;;;;;;;6.80;1.48;;;;;;;;;;5022987;28;20033;-73
2021/12/05 06:46:13;;;;;;;4.65;1.98;;;;;;;;;;5023098;28;20952;-73
2021/12/05 06:48:42;;;;;;;6.32;2.20;;;;;;;;;;5022720;28;20103;-73
2021/12/05 06:51:08;;;;;;;3.10;2.00;;;;;;;;;;5021174;28;20028;-73
2021/12/05 06:53:34;;;;;;;2.47;2.10;;;;;;;;;;5022447;28;20102;-73
2021/12/05 06:56:00;;;;;;;5.68;2.30;;;;;;;;;;5022439;28;20045;-73
2021/12/05 06:58:25;;;;;;;5.22;1.77;;;;;;;;;;5022143;28;20492;-73
2021/12/05 07:00:51;;;;;;;7.47;2.17;;;;;;;;;;5022548;28;20396;-73
2021/12/05 07:03:16;;;;;;;3.67;2.10;;;;;;;;;;5021969;28;20793;-73
2021/12/05 07:08:26;;;;;;;4.57;1.80;;;;;;;;;;5022344;28;20040;-73
2021/12/05 07:16:28;;;;;;;3.40;1.85;;;;;;;;;;5000000;28;20042;-73
2021/12/05 07:19:19;;;;;;;2.95;1.60;;;;;;;;;;5000131;28;20038;-73
2021/12/05 07:21:54;;;;;;;2.05;1.33;;;;;;;;;;5014651;28;20511;-73
2021/12/05 07:40:28;;;;;;;3.00;1.10;;;;;;;;;;5021161;28;20091;-73
2021/12/05 07:43:09;;;;;;;3.30;1.25;;;;;;;;;;5020980;28;20116;-73
2021/12/05 07:45:43;;;;;;;3.70;1.40;;;;;;;;;;5021461;28;20033;-73
2021/12/05 07:48:18;;;;;;;4.22;1.55;;;;;;;;;;5020896;28;20065;-74
2021/12/05 07:51:09;;;;;;;4.03;1.42;;;;;;;;;;5021466;28;20046;-74
2021/12/05 07:53:51;;;;;;;1.42;1.20;;;;;;;;;;5053202;28;21033;-74
2021/12/05 07:56:31;;;;;;;;;;;;;;;;;;5021074;28;20030;-74
2021/12/05 08:15:15;;;;;;;2.53;2.10;;;;;;;;;;5022012;28;20083;-74
2021/12/05 08:17:49;;;;;;;3.90;2.17;;;;;;;;;;5022263;28;20781;-74
2021/12/05 08:20:14;;;;;;;4.30;2.22;;;;;;;;;;5053064;28;20033;-75
2021/12/05 08:22:40;;;;;;;4.43;1.63;;;;;;;;;;5021941;28;20041;-74
2021/12/05 08:25:11;;;;;;;3.50;1.50;;;;;;;;;;5019639;28;20120;-74
2021/12/05 08:27:40;;;;;;;3.20;1.73;;;;;;;;;;5021003;28;20037;-75
2021/12/05 08:30:11;;;;;;;8.80;1.70;;;;;;;;;;5020496;28;20291;-73
2021/12/05 09:21:36;;;;;;;3.67;0.90;;;;;;;;;;5021861;28;20038;-71
2021/12/05 09:24:32;;;;;;;3.22;1.00;;;;;;;;;;5022339;28;20041;-71
2021/12/05 09:27:25;;;;;;;4.63;1.10;;;;;;;;;;5021153;28;20041;-71
2021/12/05 10:06:40;;;;;;;3.17;1.10;;;;;;;;;;5064655;28;20684;-70
2021/12/05 10:09:07;;;;;;;0.68;0.60;;;;;;;;;;5065677;28;20861;-71
2021/12/05 10:11:41;;;;;;;2.30;0.82;;;;;;;;;;5065408;28;20032;-71
2021/12/05 10:16:38;;;;;;;2.13;0.80;;;;;;;;;;5064647;28;20065;-71
2021/12/05 10:19:43;;;;;;;3.93;0.83;;;;;;;;;;5064684;28;20051;-74
2021/12/05 10:26:24;;;;;;;2.75;1.00;;;;;;;;;;5064722;28;20129;-73
2021/12/05 10:38:45;;;;;;;1.58;0.70;;;;;;;;;;5063743;28;20048;-69
2021/12/05 10:43:50;;;;;;;6.03;0.90;;;;;;;;;;5062519;28;20131;-71
2021/12/05 10:46:18;;;;;;;2.20;0.93;;;;;;;;;;5062959;28;20117;-72
2021/12/05 10:48:52;;;;;;;3.30;0.93;;;;;;;;;;5063368;28;20123;-71
2021/12/05 10:51:21;;;;;;;6.28;0.98;;;;;;;;;;5062680;28;20040;-71
2021/12/05 10:53:55;;;;;;;2.70;0.80;;;;;;;;;;5061983;28;20040;-72
2021/12/05 10:56:26;;;;;;;2.60;0.95;;;;;;;;;;5062604;28;20089;-70
2021/12/05 10:58:56;;;;;;;4.05;1.77;;;;;;;;;;5063432;28;20028;-72
2021/12/05 11:01:24;;;;;;;4.28;1.00;;;;;;;;;;5061655;28;20105;-71
2021/12/05 11:03:53;;;;;;;1.70;1.10;;;;;;;;;;5062894;28;20032;-72
2021/12/05 11:06:26;;;;;;;1.75;0.93;;;;;;;;;;5062007;28;20028;-72
2021/12/05 11:09:07;;;;;;;3.47;0.77;;;;;;;;;;5062712;28;20131;-73
2021/12/05 11:11:33;;;;;;;1.95;0.85;;;;;;;;;;5044803;28;20029;-72
2021/12/05 11:14:01;;;;;;;3.47;1.20;;;;;;;;;;5062409;28;20047;-72
2021/12/05 11:16:37;;;;;;;1.63;0.90;;;;;;;;;;5061696;28;20039;-72
2021/12/05 11:19:21;;;;;;;3.65;0.85;;;;;;;;;;5064143;28;20036;-71
2021/12/05 11:21:56;;;;;;;6.65;1.00;;;;;;;;;;5064362;28;20044;-74
2021/12/05 11:24:44;;;;;;;2.92;1.20;;;;;;;;;;5045532;28;20556;-73
2021/12/05 11:27:17;;;;;;;3.67;1.17;;;;;;;;;;5061253;28;20119;-73
2021/12/05 11:29:59;;;;;;;2.53;0.98;;;;;;;;;;5065895;28;20047;-71
2021/12/05 11:32:43;;;;;;;2.88;1.10;;;;;;;;;;5066305;28;20042;-71
2021/12/05 11:35:35;;;;;;;1.55;0.98;;;;;;;;;;5068395;28;20039;-69
2021/12/05 11:38:21;;;;;;;2.33;0.98;;;;;;;;;;5066437;28;20044;-71
2021/12/05 11:41:03;;;;;;;2.30;1.15;;;;;;;;;;5066984;28;20044;-71
2021/12/05 11:43:42;;;;;;;4.47;1.00;;;;;;;;;;5065509;28;20029;-71
2021/12/05 11:46:13;;;;;;;3.70;1.00;;;;;;;;;;5065246;28;20402;-73
2021/12/05 11:48:42;;;;;;;5.05;1.02;;;;;;;;;;5042633;28;20119;-72
2021/12/05 11:51:31;;;;;;;2.97;0.98;;;;;;;;;;5061594;28;20060;-72
2021/12/05 11:54:08;;;;;;;3.72;1.00;;;;;;;;;;5027052;28;20205;-75
2021/12/05 11:56:34;;;;;;;3.28;1.17;;;;;;;;;;5062072;28;20051;-72
2021/12/05 11:59:05;;;;;;;1.55;1.00;;;;;;;;;;5061724;28;20040;-73
2021/12/05 12:01:45;;;;;;;2.90;1.23;;;;;;;;;;5060521;28;20506;-70
2021/12/05 12:04:13;;;;;;;5.70;1.00;;;;;;;;;;5060561;28;20048;-70
2021/12/05 12:06:40;;;;;;;3.65;1.23;;;;;;;;;;5043714;28;20102;-71
2021/12/05 12:09:05;;;;;;;1.98;1.08;;;;;;;;;;5061027;28;20040;-71
2021/12/05 12:11:32;;;;;;;2.33;0.90;;;;;;;;;;5060446;28;20130;-72
2021/12/05 12:13:58;;;;;;;4.72;1.20;;;;;;;;;;5060933;28;20033;-71
2021/12/05 12:16:23;;;;;;;2.95;1.30;;;;;;;;;;5027571;28;20111;-72
2021/12/05 12:18:50;;;;;;;2.63;1.27;;;;;;;;;;5061409;28;20155;-72
2021/12/05 12:21:26;;;;;;;4.35;1.20;;;;;;;;;;5059917;28;20063;-73
2021/12/05 12:23:59;;;;;;;6.93;1.58;;;;;;;;;;5061442;28;20041;-72
2021/12/05 12:26:25;;;;;;;3.53;1.33;;;;;;;;;;5061317;28;20032;-71
2021/12/05 12:28:52;;;;;;;4.00;1.00;;;;;;;;;;5061377;28;20040;-72
2021/12/05 12:31:33;;;;;;;1.60;1.30;;;;;;;;;;5042925;28;20379;-72
2021/12/05 12:34:13;;;;;;;4.20;1.30;;;;;;;;;;5041824;28;20043;-71
2021/12/05 12:36:40;;;;;;;6.20;1.10;;;;;;;;;;5060738;28;20036;-71
2021/12/05 12:39:26;;;;;;;3.45;1.45;;;;;;;;;;5061029;28;20336;-71
2021/12/05 12:42:13;;;;;;;1.85;1.60;;;;;;;;;;5061364;28;20040;-72
2021/12/05 12:45:12;;;;;;;4.47;1.52;;;;;;;;;;5060383;28;20491;-72
2021/12/05 12:47:40;;;;;;;1.40;1.00;;;;;;;;;;5043277;28;20516;-73
2021/12/05 12:50:23;;;;;;;1.75;1.13;;;;;;;;;;5060896;28;20044;-72
2021/12/05 12:53:12;;;;;;;4.65;1.40;;;;;;;;;;5060969;28;20047;-74
2021/12/05 12:55:43;;;;;;;1.48;1.20;;;;;;;;;;5042387;28;20040;-75
2021/12/05 12:58:11;;;;;;;2.08;1.45;;;;;;;;;;5042769;28;20487;-75
2021/12/05 13:00:43;;;;;;;3.53;1.98;;;;;;;;;;5060897;28;20066;-73
2021/12/05 13:03:26;;;;;;;2.67;1.55;;;;;;;;;;5042825;28;20028;-72
2021/12/05 13:07:17;;;;;;;2.92;1.33;;;;;;;;;;5059664;28;20036;-71
2021/12/05 13:11:45;;;;;;;6.40;2.20;;;;;;;;;;5060407;28;20090;-74
2021/12/05 13:14:10;;;;;;;5.30;1.77;;;;;;;;;;5060709;28;20040;-72
2021/12/05 13:16:38;;;;;;;2.72;1.95;;;;;;;;;;5059737;28;20062;-75
2021/12/05 13:19:28;;;;;;;5.63;3.13;;;;;;;;;;5042550;28;20090;-75
2021/12/05 13:22:07;;;;;;;5.75;2.35;;;;;;;;;;5060549;28;20044;-75
2021/12/05 13:24:46;;;;;;;4.22;2.08;;;;;;;;;;5060765;28;20036;-76
2021/12/05 13:27:29;;;;;;;5.93;2.00;;;;;;;;;;5059970;28;20558;-72
2021/12/05 13:29:57;;;;;;;3.95;1.98;;;;;;;;;;5058662;28;20039;-74
2021/12/05 13:32:29;;;;;;;9.40;1.80;;;;;;;;;;5060690;28;20033;-73
2021/12/05 13:34:59;;;;;;;2.53;1.80;;;;;;;;;;5045827;28;20036;-74
2021/12/05 13:37:29;;;;;;;3.08;1.48;;;;;;;;;;5063916;28;20119;-76
2021/12/05 13:40:03;;;;;;;3.92;1.80;;;;;;;;;;5045801;28;20515;-74
2021/12/05 13:42:35;;;;;;;6.20;1.80;;;;;;;;;;5064841;28;20408;-75
2021/12/05 13:45:00;;;;;;;4.10;1.90;;;;;;;;;;5064676;28;20037;-73
2021/12/05 13:48:07;;;;;;;7.13;1.83;;;;;;;;;;5030016;28;20312;-74
2021/12/05 13:50:44;;;;;;;7.68;1.98;;;;;;;;;;5045542;28;20028;-74
2021/12/05 13:53:10;;;;;;;3.08;1.60;;;;;;;;;;5045797;28;20050;-74
2021/12/05 13:55:42;;;;;;;5.97;2.00;;;;;;;;;;5064635;28;20479;-74
2021/12/05 13:58:25;;;;;;;7.10;2.05;;;;;;;;;;5046679;28;21222;-74
2021/12/05 14:01:00;;;;;;;5.80;2.13;;;;;;;;;;5063193;28;20033;-72
2021/12/05 14:03:40;;;;;;;5.88;1.85;;;;;;;;;;5064491;28;20041;-74
2021/12/05 14:06:24;;;;;;;5.40;2.00;;;;;;;;;;5065076;28;20410;-74
2021/12/05 14:08:52;;;;;;;3.58;1.73;;;;;;;;;;5064068;28;20036;-74
2021/12/05 14:11:18;;;;;;;5.85;1.80;;;;;;;;;;5028509;28;20028;-74
2021/12/05 14:13:44;;;;;;;5.07;2.17;;;;;;;;;;5064787;28;20494;-73
2021/12/05 14:16:09;;;;;;;7.47;1.98;;;;;;;;;;5063936;28;20037;-74
2021/12/05 14:18:35;;;;;;;6.82;1.50;;;;;;;;;;5046566;28;20174;-73
2021/12/05 14:21:15;;;;;;;8.25;2.03;;;;;;;;;;5046120;28;20044;-74
2021/12/05 14:23:50;;;;;;;0.88;0.88;;;;;;;;;;5059663;28;20048;-75
2021/12/05 14:26:19;;;;;;;4.68;2.25;;;;;;;;;;5045193;28;20119;-74
2021/12/05 14:29:04;;;;;;;3.63;2.15;;;;;;;;;;5063714;28;20043;-74
2021/12/05 14:31:36;;;;;;;8.38;2.47;;;;;;;;;;5062937;28;20402;-74
2021/12/05 14:34:02;;;;;;;4.38;2.20;;;;;;;;;;5061729;28;20051;-73
2021/12/05 14:36:32;;;;;;;5.70;1.92;;;;;;;;;;5062920;28;20046;-74
2021/12/05 14:39:14;;;;;;;7.47;2.05;;;;;;;;;;5043666;28;20045;-74
2021/12/05 14:41:40;;;;;;;;;;;;;;;;;;5064301;28;20163;-72
2021/12/05 14:44:06;;;;;;;2.70;1.80;;;;;;;;;;5062217;28;19921;-74
2021/12/05 14:46:32;;;;;;;6.85;2.08;;;;;;;;;;5061914;28;20036;-74
2021/12/05 14:49:03;;;;;;;2.97;1.60;;;;;;;;;;5063003;28;20040;-74
2021/12/05 14:51:39;;;;;;;3.28;2.22;;;;;;;;;;5062540;28;20411;-74
2021/12/05 14:54:05;;;;;;;7.65;2.05;;;;;;;;;;5062962;28;20051;-74
2021/12/05 14:56:34;;;;;;;7.35;2.58;;;;;;;;;;5062485;28;20380;-73
2021/12/05 14:59:06;;;;;;;3.03;1.85;;;;;;;;;;5062500;28;20040;-74
2021/12/05 15:01:31;;;;;;;2.35;1.73;;;;;;;;;;5062140;28;20028;-77
2021/12/05 15:03:59;;;;;;;3.55;2.20;;;;;;;;;;5064758;28;20889;-76
2021/12/05 15:06:35;;;;;;;2.38;1.98;;;;;;;;;;5065292;28;20115;-76
2021/12/05 15:09:05;;;;;;;9.90;1.67;;;;;;;;;;5064983;28;20048;-76
2021/12/05 15:11:31;;;;;;;2.33;1.30;;;;;;;;;;5065817;28;20032;-76
2021/12/05 15:14:04;;;;;;;3.83;0.77;;;;;;;;;;5068046;28;20055;-77
2021/12/05 15:16:30;;;;;;;0.82;0.50;;;;;;;;;;5063745;28;20033;-77
2021/12/05 15:18:55;;;;;;;1.10;0.45;;;;;;;;;;5063407;28;20803;-77
2021/12/05 15:21:21;;;;;;;1.75;0.60;;;;;;;;;;5061234;28;20133;-77
2021/12/05 15:23:47;;;;;;;1.65;0.68;;;;;;;;;;5062441;28;20143;-77
2021/12/05 15:26:14;;;;;;;1.00;0.90;;;;;;;;;;5065314;28;20036;-76
2021/12/05 15:28:40;;;;;;;0.88;0.88;;;;;;;;;;5063232;28;20044;-76
2021/12/05 15:31:06;;;;;;;3.80;0.85;;;;;;;;;;5062216;28;20495;-77
2021/12/05 15:33:34;;;;;;;1.08;0.80;;;;;;;;;;5062124;28;20124;-76
2021/12/05 15:36:00;;;;;;;2.13;0.50;;;;;;;;;;5061817;28;20062;-76
2021/12/05 15:38:29;;;;;;;2.42;0.55;;;;;;;;;;5062575;28;20039;-76
2021/12/05 15:41:02;;;;;;;2.60;0.52;;;;;;;;;;5061849;28;20063;-76
2021/12/05 15:43:30;;;;;;;0.70;0.40;;;;;;;;;;5044045;28;20380;-76
2021/12/05 15:45:57;;;;;;;2.17;0.40;;;;;;;;;;5062211;28;20036;-76
2021/12/05 15:48:23;;;;;;;2.70;1.20;;;;;;;;;;5061947;28;20035;-76
2021/12/05 15:50:51;;;;;;;1.58;0.60;;;;;;;;;;5061461;28;20036;-76
2021/12/05 15:53:18;;;;;;;3.38;0.60;;;;;;;;;;5061461;28;20068;-76
2021/12/05 15:55:51;;;;;;;3.17;0.68;;;;;;;;;;5061645;28;20149;-76
2021/12/05 15:58:30;;;;;;;0.52;0.40;;;;;;;;;;5061693;28;20028;-76
2021/12/05 16:01:24;;;;;;;0.45;0.45;;;;;;;;;;5061315;28;20359;-76
2021/12/05 16:03:52;;;;;;;3.70;0.80;;;;;;;;;;5060399;28;20055;-76
2021/12/05 16:06:20;;;;;;;0.82;0.60;;;;;;;;;;5061508;28;20036;-77
2021/12/05 16:08:54;;;;;;;4.75;0.50;;;;;;;;;;5061648;28;20037;-76
2021/12/05 16:11:21;;;;;;;2.70;1.20;;;;;;;;;;5061335;28;20813;-77
2021/12/05 16:13:50;;;;;;;6.38;2.47;;;;;;;;;;5060637;28;20125;-76
2021/12/05 16:16:19;;;;;;;9.90;5.03;;;;;;;;;;5061336;28;20395;-76
2021/12/05 16:18:51;;;;;;;11.13;5.05;;;;;;;;;;5062579;28;20528;-76
2021/12/05 16:21:26;;;;;;;8.15;4.93;;;;;;;;;;5060117;28;20064;-76
2021/12/05 16:23:52;;;;;;;9.90;4.28;;;;;;;;;;5060757;28;20051;-75
2021/12/05 16:26:22;;;;;;;9.50;4.95;;;;;;;;;;5044619;28;20051;-76
2021/12/05 16:28:51;;;;;;;6.88;4.68;;;;;;;;;;5062229;28;20044;-76
2021/12/05 16:31:20;;;;;;;8.77;4.90;;;;;;;;;;5062250;28;20114;-76
2021/12/05 16:33:50;;;;;;;5.93;3.97;;;;;;;;;;5041942;28;20510;-76
2021/12/05 16:36:18;;;;;;;6.03;4.65;;;;;;;;;;5043010;28;20509;-74
2021/12/05 16:38:51;;;;;;;17.95;5.63;;;;;;;;;;5061382;28;20036;-75
2021/12/05 16:41:28;;;;;;;8.45;5.05;;;;;;;;;;5061345;28;20125;-74
2021/12/05 16:44:13;;;;;;;8.57;4.72;;;;;;;;;;5060795;28;20033;-75
2021/12/05 16:46:42;;;;;;;8.25;3.30;;;;;;;;;;5059865;28;20045;-74
2021/12/05 16:49:13;;;;;;;4.85;3.10;;;;;;;;;;5060098;28;20040;-75
2021/12/05 16:51:53;;;;;;;9.57;4.10;;;;;;;;;;5060367;28;20468;-75
2021/12/05 16:54:25;;;;;;;4.65;3.33;;;;;;;;;;5059828;28;20032;-74
2021/12/05 16:57:06;;;;;;;6.22;4.20;;;;;;;;;;5059599;28;20051;-74
2021/12/05 16:59:38;;;;;;;9.43;5.45;;;;;;;;;;5060489;28;20064;-75
2021/12/05 17:02:25;;;;;;;12.77;6.28;;;;;;;;;;5041563;28;20105;-75
2021/12/05 17:05:04;;;;;;;8.43;5.72;;;;;;;;;;5041824;28;20652;-74
2021/12/05 17:07:42;;;;;;;12.70;5.32;;;;;;;;;;5059566;28;20491;-74
2021/12/05 17:10:30;;;;;;;11.68;5.65;;;;;;;;;;5060055;28;20608;-74
2021/12/05 17:13:09;;;;;;;13.63;6.45;;;;;;;;;;5041428;28;20056;-74
2021/12/05 17:15:41;;;;;;;13.82;6.53;;;;;;;;;;5058786;28;20123;-75
2021/12/05 17:18:15;;;;;;;14.80;5.93;;;;;;;;;;5059150;28;20036;-74
2021/12/05 17:20:51;;;;;;;8.10;5.32;;;;;;;;;;5059247;28;20232;-74
2021/12/05 17:23:21;;;;;;;12.13;6.80;;;;;;;;;;5059948;28;20060;-74
2021/12/05 17:25:50;;;;;;;9.98;6.63;;;;;;;;;;5059945;28;20123;-74
2021/12/05 17:28:46;;;;;;;9.90;7.28;;;;;;;;;;5060689;28;20036;-74
2021/12/05 17:31:14;;;;;;;15.07;8.15;;;;;;;;;;5058947;28;20032;-74
2021/12/05 17:33:46;;;;;;;10.13;5.78;;;;;;;;;;5059019;28;20044;-74
2021/12/05 17:36:29;;;;;;;9.93;6.00;;;;;;;;;;5059117;28;20044;-76
2021/12/05 17:39:10;;;;;;;12.20;8.00;;;;;;;;;;5060778;28;20060;-76
2021/12/05 17:41:37;;;;;;;17.75;8.07;;;;;;;;;;5059515;28;20043;-76
2021/12/05 17:44:04;;;;;;;14.55;9.55;;;;;;;;;;5059616;28;20043;-76
2021/12/05 17:46:31;;;;;;;14.73;8.48;;;;;;;;;;5060147;28;20035;-76
2021/12/05 17:48:57;;;;;;;17.45;8.77;;;;;;;;;;5059208;28;20036;-75
2021/12/05 17:51:31;;;;;;;13.20;9.05;;;;;;;;;;5058312;28;20078;-75
2021/12/05 17:53:58;;;;;;;17.83;7.80;;;;;;;;;;5058105;28;20268;-75
2021/12/05 17:56:39;;;;;;;11.85;7.50;;;;;;;;;;5057256;28;20021;-76
2021/12/05 17:59:13;;;;;;;12.82;7.80;;;;;;;;;;5058259;28;20059;-76
2021/12/05 18:04:30;;;;;;;11.52;7.30;;;;;;;;;;5060025;28;20466;-76
2021/12/05 18:06:56;;;;;;;15.70;8.52;;;;;;;;;;5060371;28;20450;-75
2021/12/05 18:09:22;;;;;;;21.42;9.70;;;;;;;;;;5042022;28;20862;-75
2021/12/05 18:11:48;;;;;;;16.52;9.55;;;;;;;;;;5059166;28;20044;-76
2021/12/05 18:14:14;;;;;;;20.63;9.35;;;;;;;;;;5059708;28;20036;-76
2021/12/05 18:16:40;;;;;;;22.90;10.95;;;;;;;;;;5060490;28;20395;-76
2021/12/05 18:19:12;;;;;;;24.83;12.48;;;;;;;;;;5060106;28;20044;-75
2021/12/05 18:21:38;;;;;;;19.60;10.40;;;;;;;;;;5062911;28;20036;-74
2021/12/05 18:24:08;;;;;;;40.75;13.68;;;;;;;;;;5029288;23;20080;-75
2021/12/05 18:26:35;;;;;;;22.85;11.30;;;;;;;;;;4979964;28;20091;-74
2021/12/05 18:29:01;;;;;;;25.55;11.95;;;;;;;;;;4983903;28;20042;-75
2021/12/05 18:31:31;;;;;;;15.23;9.45;;;;;;;;;;4979859;28;20038;-74
2021/12/05 18:34:20;;;;;;;16.58;8.95;;;;;;;;;;4978309;28;20117;-74
2021/12/05 18:36:48;;;;;;;12.65;8.02;;;;;;;;;;4980473;28;20050;-74
2021/12/05 18:39:21;;;;;;;12.98;7.45;;;;;;;;;;4980543;28;20038;-74
2021/12/05 18:41:47;;;;;;;11.60;6.78;;;;;;;;;;4981580;28;20046;-73
2021/12/05 18:44:17;;;;;;;11.50;7.32;;;;;;;;;;4981422;28;20030;-74
2021/12/05 18:46:44;;;;;;;16.00;9.23;;;;;;;;;;4980830;28;20069;-74
2021/12/05 18:49:10;;;;;;;18.25;8.40;;;;;;;;;;4984067;28;20091;-75
2021/12/05 18:51:36;;;;;;;20.38;7.32;;;;;;;;;;4981431;28;20507;-75
2021/12/05 18:54:02;;;;;;;13.27;7.07;;;;;;;;;;4984118;28;20035;-74
2021/12/05 18:56:28;;;;;;;15.15;7.40;;;;;;;;;;4979578;28;20038;-75
2021/12/05 18:58:55;;;;;;;10.80;7.13;;;;;;;;;;4983893;28;20037;-74
2021/12/05 19:06:52;;;;;;;11.13;6.47;;;;;;;;;;4980084;28;20049;-74
2021/12/05 19:09:41;;;;;;;10.50;5.82;;;;;;;;;;4978880;28;20072;-74
2021/12/05 19:12:07;;;;;;;11.63;6.25;;;;;;;;;;4980718;28;20469;-74
2021/12/05 19:14:36;;;;;;;19.38;6.72;;;;;;;;;;4981443;28;20031;-73
2021/12/05 19:17:15;;;;;;;17.35;6.80;;;;;;;;;;4981966;28;20408;-74
2021/12/05 19:19:43;;;;;;;22.52;6.82;;;;;;;;;;4981118;28;20485;-73
2021/12/05 19:22:14;;;;;;;175.05;10.13;;;;;;;;;;4981327;28;20035;-73
2021/12/05 19:24:40;;;;;;;270.38;12.38;;;;;;;;;;4981011;28;20034;-73
2021/12/05 19:27:06;;;;;;;407.60;17.50;;;;;;;;;;4981654;28;20056;-75
2021/12/05 19:29:34;;;;;;;69.88;9.60;;;;;;;;;;4981012;28;20049;-74
2021/12/05 19:32:00;;;;;;;501.70;21.20;;;;;;;;;;4980406;28;20497;-74
2021/12/05 19:34:27;;;;;;;137.23;12.55;;;;;;;;;;4979998;28;20062;-74
2021/12/05 19:36:53;;;;;;;112.43;12.20;;;;;;;;;;4982530;28;20040;-73
2021/12/05 19:39:22;;;;;;;355.40;16.55;;;;;;;;;;4978507;28;20034;-74
2021/12/05 19:41:48;;;;;;;133.02;11.95;;;;;;;;;;4982422;28;20133;-73
2021/12/05 19:44:15;;;;;;;228.05;11.95;;;;;;;;;;4979350;28;20053;-74
2021/12/05 19:46:41;;;;;;;100.32;11.07;;;;;;;;;;4980657;28;20035;-74
2021/12/05 19:49:07;;;;;;;215.13;12.18;;;;;;;;;;4978439;28;20030;-74
2021/12/05 19:51:35;;;;;;;100.15;10.43;;;;;;;;;;4980669;28;20385;-74
2021/12/05 19:54:03;;;;;;;287.77;12.13;;;;;;;;;;4981005;28;20047;-74
2021/12/05 19:56:30;;;;;;;17.65;8.55;;;;;;;;;;4980263;28;20046;-74
2021/12/05 19:58:56;;;;;;;312.65;12.68;;;;;;;;;;4980690;28;20042;-74
2021/12/05 20:01:22;;;;;;;196.52;11.25;;;;;;;;;;4979540;28;20046;-73
2021/12/05 20:03:48;;;;;;;315.85;14.90;;;;;;;;;;4981142;28;20919;-73
2021/12/05 20:06:15;;;;;;;69.70;10.23;;;;;;;;;;4979174;28;20061;-74
2021/12/05 20:08:43;;;;;;;15.02;8.95;;;;;;;;;;4980963;28;20046;-74
2021/12/05 20:11:11;;;;;;;84.50;8.27;;;;;;;;;;4977951;28;20045;-74
2021/12/05 20:13:39;;;;;;;141.70;8.85;;;;;;;;;;4978203;28;20038;-73
2021/12/05 20:16:05;;;;;;;87.47;7.65;;;;;;;;;;4980173;28;20046;-73